sensor_id;sensor_type;location;lat;lon;timestamp;temperature;humidity
47546;DHT22;50104;52.002;4.688;2022-08-14T00:01:45;23.60;63.30
47546;DHT22;50104;52.002;4.688;2022-08-14T00:06:46;23.60;63.90
47546;DHT22;50104;52.002;4.688;2022-08-14T00:11:47;23.60;63.00
47546;DHT22;50104;52.002;4.688;2022-08-14T00:16:48;23.50;62.50
47546;DHT22;50104;52.002;4.688;2022-08-14T00:21:51;23.50;62.90
47546;DHT22;50104;52.002;4.688;2022-08-14T00:26:52;23.40;62.40
47546;DHT22;50104;52.002;4.688;2022-08-14T00:31:53;23.40;62.50
47546;DHT22;50104;52.002;4.688;2022-08-14T00:36:54;23.30;62.30
47546;DHT22;50104;52.002;4.688;2022-08-14T00:41:55;23.30;62.20
47546;DHT22;50104;52.002;4.688;2022-08-14T00:46:56;23.20;62.10
47546;DHT22;50104;52.002;4.688;2022-08-14T00:51:58;23.20;62.30
47546;DHT22;50104;52.002;4.688;2022-08-14T00:56:59;23.20;62.00
47546;DHT22;50104;52.002;4.688;2022-08-14T01:02:01;23.20;62.40
47546;DHT22;50104;52.002;4.688;2022-08-14T01:07:02;23.10;62.40
47546;DHT22;50104;52.002;4.688;2022-08-14T01:12:04;23.10;62.40
47546;DHT22;50104;52.002;4.688;2022-08-14T01:17:05;23.10;62.60
47546;DHT22;50104;52.002;4.688;2022-08-14T01:22:06;23.00;62.30
47546;DHT22;50104;52.002;4.688;2022-08-14T01:27:14;23.00;62.30
47546;DHT22;50104;52.002;4.688;2022-08-14T01:32:19;23.00;62.30
47546;DHT22;50104;52.002;4.688;2022-08-14T01:37:21;23.00;62.50
47546;DHT22;50104;52.002;4.688;2022-08-14T01:42:24;22.90;61.90
47546;DHT22;50104;52.002;4.688;2022-08-14T01:47:29;22.90;62.50
47546;DHT22;50104;52.002;4.688;2022-08-14T01:52:33;22.90;62.40
47546;DHT22;50104;52.002;4.688;2022-08-14T01:57:36;22.80;62.10
47546;DHT22;50104;52.002;4.688;2022-08-14T02:02:40;22.80;61.60
47546;DHT22;50104;52.002;4.688;2022-08-14T02:07:42;22.70;61.40
47546;DHT22;50104;52.002;4.688;2022-08-14T02:12:45;22.70;61.20
47546;DHT22;50104;52.002;4.688;2022-08-14T02:17:49;22.70;61.50
47546;DHT22;50104;52.002;4.688;2022-08-14T02:23:05;22.60;61.20
47546;DHT22;50104;52.002;4.688;2022-08-14T02:28:06;22.60;61.50
47546;DHT22;50104;52.002;4.688;2022-08-14T02:33:07;22.60;61.70
47546;DHT22;50104;52.002;4.688;2022-08-14T02:38:09;22.50;61.70
47546;DHT22;50104;52.002;4.688;2022-08-14T02:43:10;22.50;61.70
47546;DHT22;50104;52.002;4.688;2022-08-14T02:48:14;22.40;61.50
47546;DHT22;50104;52.002;4.688;2022-08-14T02:53:15;22.40;61.80
47546;DHT22;50104;52.002;4.688;2022-08-14T02:58:16;22.40;61.70
47546;DHT22;50104;52.002;4.688;2022-08-14T03:03:17;22.30;62.00
47546;DHT22;50104;52.002;4.688;2022-08-14T03:08:23;22.30;62.00
47546;DHT22;50104;52.002;4.688;2022-08-14T03:13:32;22.20;61.70
47546;DHT22;50104;52.002;4.688;2022-08-14T03:18:37;22.20;62.20
47546;DHT22;50104;52.002;4.688;2022-08-14T03:23:43;22.20;62.30
47546;DHT22;50104;52.002;4.688;2022-08-14T03:28:48;22.10;62.00
47546;DHT22;50104;52.002;4.688;2022-08-14T03:33:51;22.00;61.70
47546;DHT22;50104;52.002;4.688;2022-08-14T03:38:52;22.00;62.40
47546;DHT22;50104;52.002;4.688;2022-08-14T03:43:58;21.90;61.90
47546;DHT22;50104;52.002;4.688;2022-08-14T03:49:01;21.90;62.20
47546;DHT22;50104;52.002;4.688;2022-08-14T03:54:05;21.90;62.60
47546;DHT22;50104;52.002;4.688;2022-08-14T03:59:11;21.80;62.90
47546;DHT22;50104;52.002;4.688;2022-08-14T04:04:13;21.70;62.60
47546;DHT22;50104;52.002;4.688;2022-08-14T04:09:14;21.70;63.00
47546;DHT22;50104;52.002;4.688;2022-08-14T04:14:15;21.60;63.10
47546;DHT22;50104;52.002;4.688;2022-08-14T04:19:15;21.60;63.10
47546;DHT22;50104;52.002;4.688;2022-08-14T04:24:18;21.50;63.00
47546;DHT22;50104;52.002;4.688;2022-08-14T04:29:19;21.40;63.60
47546;DHT22;50104;52.002;4.688;2022-08-14T04:34:20;21.40;63.50
47546;DHT22;50104;52.002;4.688;2022-08-14T04:39:21;21.30;63.50
47546;DHT22;50104;52.002;4.688;2022-08-14T04:44:41;21.30;63.80
47546;DHT22;50104;52.002;4.688;2022-08-14T04:49:43;21.20;63.70
47546;DHT22;50104;52.002;4.688;2022-08-14T04:54:43;21.10;64.00
47546;DHT22;50104;52.002;4.688;2022-08-14T04:59:44;21.10;64.20
47546;DHT22;50104;52.002;4.688;2022-08-14T05:04:45;21.10;64.60
47546;DHT22;50104;52.002;4.688;2022-08-14T05:09:46;21.00;64.80
47546;DHT22;50104;52.002;4.688;2022-08-14T05:14:47;21.00;64.80
47546;DHT22;50104;52.002;4.688;2022-08-14T05:19:49;21.00;65.00
47546;DHT22;50104;52.002;4.688;2022-08-14T05:24:50;21.00;65.30
47546;DHT22;50104;52.002;4.688;2022-08-14T05:29:52;21.00;65.40
47546;DHT22;50104;52.002;4.688;2022-08-14T05:34:58;21.00;65.40
47546;DHT22;50104;52.002;4.688;2022-08-14T05:39:59;21.00;65.40
47546;DHT22;50104;52.002;4.688;2022-08-14T05:45:03;21.10;65.80
47546;DHT22;50104;52.002;4.688;2022-08-14T05:50:06;21.10;65.50
47546;DHT22;50104;52.002;4.688;2022-08-14T05:55:12;21.10;65.90
47546;DHT22;50104;52.002;4.688;2022-08-14T06:00:15;21.10;66.20
47546;DHT22;50104;52.002;4.688;2022-08-14T06:05:17;21.20;66.00
47546;DHT22;50104;52.002;4.688;2022-08-14T06:10:18;21.20;66.00
47546;DHT22;50104;52.002;4.688;2022-08-14T06:15:19;21.20;66.20
47546;DHT22;50104;52.002;4.688;2022-08-14T06:20:20;21.30;66.60
47546;DHT22;50104;52.002;4.688;2022-08-14T06:25:22;21.30;66.70
47546;DHT22;50104;52.002;4.688;2022-08-14T06:30:26;21.30;66.70
47546;DHT22;50104;52.002;4.688;2022-08-14T06:35:29;21.40;66.70
47546;DHT22;50104;52.002;4.688;2022-08-14T06:40:35;21.40;67.20
47546;DHT22;50104;52.002;4.688;2022-08-14T06:45:37;21.50;68.10
47546;DHT22;50104;52.002;4.688;2022-08-14T06:50:40;21.60;68.10
47546;DHT22;50104;52.002;4.688;2022-08-14T06:55:41;21.70;68.50
47546;DHT22;50104;52.002;4.688;2022-08-14T07:00:44;21.90;69.50
47546;DHT22;50104;52.002;4.688;2022-08-14T07:06:05;22.30;69.30
47546;DHT22;50104;52.002;4.688;2022-08-14T07:11:06;22.70;68.30
47546;DHT22;50104;52.002;4.688;2022-08-14T07:16:08;23.10;67.10
47546;DHT22;50104;52.002;4.688;2022-08-14T07:21:12;23.50;66.50
47546;DHT22;50104;52.002;4.688;2022-08-14T07:26:13;23.80;65.20
47546;DHT22;50104;52.002;4.688;2022-08-14T07:31:14;24.20;64.70
47546;DHT22;50104;52.002;4.688;2022-08-14T07:36:17;24.50;64.40
47546;DHT22;50104;52.002;4.688;2022-08-14T07:41:19;24.80;63.40
47546;DHT22;50104;52.002;4.688;2022-08-14T07:46:20;25.10;63.30
47546;DHT22;50104;52.002;4.688;2022-08-14T07:51:21;25.40;63.20
47546;DHT22;50104;52.002;4.688;2022-08-14T07:56:22;25.60;63.20
47546;DHT22;50104;52.002;4.688;2022-08-14T08:01:24;25.90;62.80
47546;DHT22;50104;52.002;4.688;2022-08-14T08:06:27;26.10;62.50
47546;DHT22;50104;52.002;4.688;2022-08-14T08:11:33;26.40;62.30
47546;DHT22;50104;52.002;4.688;2022-08-14T08:16:35;26.60;62.60
47546;DHT22;50104;52.002;4.688;2022-08-14T08:21:38;26.80;62.50
47546;DHT22;50104;52.002;4.688;2022-08-14T08:26:39;27.00;62.30
47546;DHT22;50104;52.002;4.688;2022-08-14T08:31:48;27.20;62.20
47546;DHT22;50104;52.002;4.688;2022-08-14T08:36:50;27.40;62.10
47546;DHT22;50104;52.002;4.688;2022-08-14T08:41:51;27.50;62.10
47546;DHT22;50104;52.002;4.688;2022-08-14T08:46:58;27.60;61.70
47546;DHT22;50104;52.002;4.688;2022-08-14T08:52:01;27.80;61.00
47546;DHT22;50104;52.002;4.688;2022-08-14T08:57:15;27.90;61.10
47546;DHT22;50104;52.002;4.688;2022-08-14T09:02:16;28.10;61.10
47546;DHT22;50104;52.002;4.688;2022-08-14T09:07:17;28.30;60.80
47546;DHT22;50104;52.002;4.688;2022-08-14T09:12:19;28.50;60.40
47546;DHT22;50104;52.002;4.688;2022-08-14T09:17:21;28.70;59.90
47546;DHT22;50104;52.002;4.688;2022-08-14T09:22:22;28.90;59.30
47546;DHT22;50104;52.002;4.688;2022-08-14T09:27:23;29.10;58.50
47546;DHT22;50104;52.002;4.688;2022-08-14T09:32:31;29.30;58.50
47546;DHT22;50104;52.002;4.688;2022-08-14T09:37:56;29.60;58.60
47546;DHT22;50104;52.002;4.688;2022-08-14T09:49:01;30.10;57.50
47546;DHT22;50104;52.002;4.688;2022-08-14T09:54:06;30.40;56.70
47546;DHT22;50104;52.002;4.688;2022-08-14T09:59:13;30.70;55.80
47546;DHT22;50104;52.002;4.688;2022-08-14T10:04:25;31.00;55.50
47546;DHT22;50104;52.002;4.688;2022-08-14T10:09:28;31.20;54.80
47546;DHT22;50104;52.002;4.688;2022-08-14T10:14:29;31.50;54.60
47546;DHT22;50104;52.002;4.688;2022-08-14T10:19:32;31.70;54.00
47546;DHT22;50104;52.002;4.688;2022-08-14T10:24:40;32.00;53.20
47546;DHT22;50104;52.002;4.688;2022-08-14T10:29:50;32.30;52.50
47546;DHT22;50104;52.002;4.688;2022-08-14T10:35:05;32.50;52.10
47546;DHT22;50104;52.002;4.688;2022-08-14T10:40:08;32.80;50.60
47546;DHT22;50104;52.002;4.688;2022-08-14T10:45:23;33.10;50.10
47546;DHT22;50104;52.002;4.688;2022-08-14T10:50:35;33.40;49.70
47546;DHT22;50104;52.002;4.688;2022-08-14T10:55:48;33.60;49.10
47546;DHT22;50104;52.002;4.688;2022-08-14T11:01:08;33.80;47.70
47546;DHT22;50104;52.002;4.688;2022-08-14T11:06:17;34.00;47.60
47546;DHT22;50104;52.002;4.688;2022-08-14T11:11:23;34.30;46.80
47546;DHT22;50104;52.002;4.688;2022-08-14T11:16:27;34.50;46.50
47546;DHT22;50104;52.002;4.688;2022-08-14T11:21:31;34.70;46.90
47546;DHT22;50104;52.002;4.688;2022-08-14T11:26:32;34.80;45.60
47546;DHT22;50104;52.002;4.688;2022-08-14T11:31:36;35.10;44.60
47546;DHT22;50104;52.002;4.688;2022-08-14T11:36:37;35.30;43.70
47546;DHT22;50104;52.002;4.688;2022-08-14T11:41:38;35.50;42.80
47546;DHT22;50104;52.002;4.688;2022-08-14T11:46:41;35.70;41.90
47546;DHT22;50104;52.002;4.688;2022-08-14T11:51:52;35.90;41.30
47546;DHT22;50104;52.002;4.688;2022-08-14T11:56:54;36.10;40.70
47546;DHT22;50104;52.002;4.688;2022-08-14T12:01:55;36.30;40.60
47546;DHT22;50104;52.002;4.688;2022-08-14T12:06:57;36.50;40.10
47546;DHT22;50104;52.002;4.688;2022-08-14T12:12:00;36.70;39.40
47546;DHT22;50104;52.002;4.688;2022-08-14T12:17:05;36.90;39.20
47546;DHT22;50104;52.002;4.688;2022-08-14T12:22:07;37.10;39.00
47546;DHT22;50104;52.002;4.688;2022-08-14T12:27:09;37.20;39.40
47546;DHT22;50104;52.002;4.688;2022-08-14T12:32:12;37.50;39.20
47546;DHT22;50104;52.002;4.688;2022-08-14T12:37:13;37.70;40.40
47546;DHT22;50104;52.002;4.688;2022-08-14T12:42:15;37.80;40.00
47546;DHT22;50104;52.002;4.688;2022-08-14T12:47:16;38.00;38.40
47546;DHT22;50104;52.002;4.688;2022-08-14T12:52:45;38.10;37.50
47546;DHT22;50104;52.002;4.688;2022-08-14T12:57:51;38.20;37.40
47546;DHT22;50104;52.002;4.688;2022-08-14T13:02:53;38.40;37.70
47546;DHT22;50104;52.002;4.688;2022-08-14T13:07:57;38.50;38.80
47546;DHT22;50104;52.002;4.688;2022-08-14T13:12:59;38.50;38.30
47546;DHT22;50104;52.002;4.688;2022-08-14T13:18:03;38.70;37.80
47546;DHT22;50104;52.002;4.688;2022-08-14T13:23:05;38.80;36.80
47546;DHT22;50104;52.002;4.688;2022-08-14T13:28:07;38.90;36.10
47546;DHT22;50104;52.002;4.688;2022-08-14T13:33:08;39.00;36.20
47546;DHT22;50104;52.002;4.688;2022-08-14T13:38:10;39.10;36.50
47546;DHT22;50104;52.002;4.688;2022-08-14T13:43:12;39.20;36.70
47546;DHT22;50104;52.002;4.688;2022-08-14T13:48:14;39.30;36.90
47546;DHT22;50104;52.002;4.688;2022-08-14T13:53:16;39.40;36.40
47546;DHT22;50104;52.002;4.688;2022-08-14T13:58:20;39.40;36.40
47546;DHT22;50104;52.002;4.688;2022-08-14T14:03:23;39.40;37.20
47546;DHT22;50104;52.002;4.688;2022-08-14T14:08:26;39.30;36.90
47546;DHT22;50104;52.002;4.688;2022-08-14T14:13:29;39.20;37.00
47546;DHT22;50104;52.002;4.688;2022-08-14T14:18:31;39.20;36.90
47546;DHT22;50104;52.002;4.688;2022-08-14T14:23:34;39.20;37.00
47546;DHT22;50104;52.002;4.688;2022-08-14T14:28:35;39.20;37.30
47546;DHT22;50104;52.002;4.688;2022-08-14T14:33:42;39.20;37.40
47546;DHT22;50104;52.002;4.688;2022-08-14T14:38:54;39.20;37.30
47546;DHT22;50104;52.002;4.688;2022-08-14T14:43:57;39.10;37.00
47546;DHT22;50104;52.002;4.688;2022-08-14T14:48:59;39.10;37.10
47546;DHT22;50104;52.002;4.688;2022-08-14T14:54:01;39.10;37.40
47546;DHT22;50104;52.002;4.688;2022-08-14T14:59:02;39.00;37.30
47546;DHT22;50104;52.002;4.688;2022-08-14T15:04:04;39.00;37.40
47546;DHT22;50104;52.002;4.688;2022-08-14T15:09:07;38.90;37.40
47546;DHT22;50104;52.002;4.688;2022-08-14T15:14:08;38.90;37.80
47546;DHT22;50104;52.002;4.688;2022-08-14T15:19:09;38.90;37.90
47546;DHT22;50104;52.002;4.688;2022-08-14T15:24:11;38.90;37.70
47546;DHT22;50104;52.002;4.688;2022-08-14T15:29:12;38.90;37.40
47546;DHT22;50104;52.002;4.688;2022-08-14T15:34:14;38.90;38.00
47546;DHT22;50104;52.002;4.688;2022-08-14T15:39:15;38.80;37.50
47546;DHT22;50104;52.002;4.688;2022-08-14T15:44:16;38.70;37.20
47546;DHT22;50104;52.002;4.688;2022-08-14T15:49:17;38.60;37.60
47546;DHT22;50104;52.002;4.688;2022-08-14T15:54:18;38.40;37.90
47546;DHT22;50104;52.002;4.688;2022-08-14T15:59:19;38.30;38.40
47546;DHT22;50104;52.002;4.688;2022-08-14T16:04:20;38.10;39.00
47546;DHT22;50104;52.002;4.688;2022-08-14T16:09:23;38.00;38.90
47546;DHT22;50104;52.002;4.688;2022-08-14T16:14:24;37.80;39.00
47546;DHT22;50104;52.002;4.688;2022-08-14T16:19:28;37.70;39.20
47546;DHT22;50104;52.002;4.688;2022-08-14T16:24:33;37.50;39.90
47546;DHT22;50104;52.002;4.688;2022-08-14T16:29:40;37.30;40.00
47546;DHT22;50104;52.002;4.688;2022-08-14T16:34:41;37.10;40.10
47546;DHT22;50104;52.002;4.688;2022-08-14T16:39:44;36.90;39.70
47546;DHT22;50104;52.002;4.688;2022-08-14T16:44:47;36.70;40.10
47546;DHT22;50104;52.002;4.688;2022-08-14T16:49:50;36.50;40.30
47546;DHT22;50104;52.002;4.688;2022-08-14T16:54:51;36.30;40.80
47546;DHT22;50104;52.002;4.688;2022-08-14T16:59:54;36.20;40.50
47546;DHT22;50104;52.002;4.688;2022-08-14T17:05:17;36.10;40.90
47546;DHT22;50104;52.002;4.688;2022-08-14T17:10:20;36.00;41.00
47546;DHT22;50104;52.002;4.688;2022-08-14T17:15:21;35.90;41.10
47546;DHT22;50104;52.002;4.688;2022-08-14T17:20:23;35.80;41.50
47546;DHT22;50104;52.002;4.688;2022-08-14T17:25:31;35.70;42.10
47546;DHT22;50104;52.002;4.688;2022-08-14T17:30:50;35.60;42.90
47546;DHT22;50104;52.002;4.688;2022-08-14T17:36:34;35.40;43.40
47546;DHT22;50104;52.002;4.688;2022-08-14T17:41:36;35.20;43.70
47546;DHT22;50104;52.002;4.688;2022-08-14T17:46:50;35.00;44.00
47546;DHT22;50104;52.002;4.688;2022-08-14T17:52:08;34.80;44.50
47546;DHT22;50104;52.002;4.688;2022-08-14T17:57:13;34.60;44.80
47546;DHT22;50104;52.002;4.688;2022-08-14T18:02:22;34.40;45.00
47546;DHT22;50104;52.002;4.688;2022-08-14T18:07:27;34.20;45.10
47546;DHT22;50104;52.002;4.688;2022-08-14T18:12:32;34.00;45.40
47546;DHT22;50104;52.002;4.688;2022-08-14T18:17:35;33.70;45.60
47546;DHT22;50104;52.002;4.688;2022-08-14T18:22:37;33.50;46.00
47546;DHT22;50104;52.002;4.688;2022-08-14T18:27:42;33.30;46.20
47546;DHT22;50104;52.002;4.688;2022-08-14T18:32:47;33.00;46.50
47546;DHT22;50104;52.002;4.688;2022-08-14T18:37:50;32.80;46.80
47546;DHT22;50104;52.002;4.688;2022-08-14T18:42:54;32.60;47.00
47546;DHT22;50104;52.002;4.688;2022-08-14T18:48:29;32.40;47.40
47546;DHT22;50104;52.002;4.688;2022-08-14T18:53:49;32.10;47.80
47546;DHT22;50104;52.002;4.688;2022-08-14T18:58:52;31.90;48.10
47546;DHT22;50104;52.002;4.688;2022-08-14T19:03:57;31.70;48.60
47546;DHT22;50104;52.002;4.688;2022-08-14T19:09:00;31.50;49.00
47546;DHT22;50104;52.002;4.688;2022-08-14T19:14:04;31.30;49.20
47546;DHT22;50104;52.002;4.688;2022-08-14T19:19:07;31.10;49.60
47546;DHT22;50104;52.002;4.688;2022-08-14T19:24:14;30.90;50.20
47546;DHT22;50104;52.002;4.688;2022-08-14T19:34:39;30.50;51.00
47546;DHT22;50104;52.002;4.688;2022-08-14T19:39:50;30.30;51.50
47546;DHT22;50104;52.002;4.688;2022-08-14T19:44:55;30.10;52.00
47546;DHT22;50104;52.002;4.688;2022-08-14T19:49:57;30.00;52.30
47546;DHT22;50104;52.002;4.688;2022-08-14T19:54:59;29.80;52.70
47546;DHT22;50104;52.002;4.688;2022-08-14T20:00:05;29.70;53.00
47546;DHT22;50104;52.002;4.688;2022-08-14T20:05:14;29.60;53.30
47546;DHT22;50104;52.002;4.688;2022-08-14T20:10:37;29.40;53.60
47546;DHT22;50104;52.002;4.688;2022-08-14T20:15:39;29.30;53.90
47546;DHT22;50104;52.002;4.688;2022-08-14T20:20:41;29.20;54.00
47546;DHT22;50104;52.002;4.688;2022-08-14T20:25:44;29.10;54.20
47546;DHT22;50104;52.002;4.688;2022-08-14T20:30:47;29.00;54.70
47546;DHT22;50104;52.002;4.688;2022-08-14T20:35:48;28.90;54.90
47546;DHT22;50104;52.002;4.688;2022-08-14T20:41:04;28.80;55.10
47546;DHT22;50104;52.002;4.688;2022-08-14T20:46:26;28.70;55.20
47546;DHT22;50104;52.002;4.688;2022-08-14T20:51:46;28.60;55.60
47546;DHT22;50104;52.002;4.688;2022-08-14T20:56:51;28.50;55.40
47546;DHT22;50104;52.002;4.688;2022-08-14T21:01:58;28.40;55.80
47546;DHT22;50104;52.002;4.688;2022-08-14T21:07:22;28.30;56.10
47546;DHT22;50104;52.002;4.688;2022-08-14T21:12:25;28.20;56.20
47546;DHT22;50104;52.002;4.688;2022-08-14T21:17:27;28.10;56.60
47546;DHT22;50104;52.002;4.688;2022-08-14T21:22:30;28.10;56.60
47546;DHT22;50104;52.002;4.688;2022-08-14T21:27:30;28.00;56.80
47546;DHT22;50104;52.002;4.688;2022-08-14T21:32:33;27.90;57.10
47546;DHT22;50104;52.002;4.688;2022-08-14T21:37:40;27.80;57.10
47546;DHT22;50104;52.002;4.688;2022-08-14T21:42:44;27.70;57.60
47546;DHT22;50104;52.002;4.688;2022-08-14T21:47:45;27.60;57.50
47546;DHT22;50104;52.002;4.688;2022-08-14T21:52:46;27.50;57.50
47546;DHT22;50104;52.002;4.688;2022-08-14T21:57:48;27.40;57.80
47546;DHT22;50104;52.002;4.688;2022-08-14T22:02:51;27.30;58.30
47546;DHT22;50104;52.002;4.688;2022-08-14T22:07:52;27.30;58.60
47546;DHT22;50104;52.002;4.688;2022-08-14T22:12:53;27.20;58.30
47546;DHT22;50104;52.002;4.688;2022-08-14T22:17:58;27.10;58.50
47546;DHT22;50104;52.002;4.688;2022-08-14T22:23:07;27.00;58.90
47546;DHT22;50104;52.002;4.688;2022-08-14T22:28:13;26.90;59.20
47546;DHT22;50104;52.002;4.688;2022-08-14T22:33:17;26.80;59.40
47546;DHT22;50104;52.002;4.688;2022-08-14T22:38:18;26.70;59.30
47546;DHT22;50104;52.002;4.688;2022-08-14T22:43:20;26.70;59.20
47546;DHT22;50104;52.002;4.688;2022-08-14T22:48:21;26.60;59.30
47546;DHT22;50104;52.002;4.688;2022-08-14T22:53:21;26.50;59.60
47546;DHT22;50104;52.002;4.688;2022-08-14T22:58:22;26.40;60.00
47546;DHT22;50104;52.002;4.688;2022-08-14T23:03:23;26.30;60.30
47546;DHT22;50104;52.002;4.688;2022-08-14T23:08:24;26.30;60.30
47546;DHT22;50104;52.002;4.688;2022-08-14T23:13:26;26.20;60.40
47546;DHT22;50104;52.002;4.688;2022-08-14T23:18:27;26.10;60.60
47546;DHT22;50104;52.002;4.688;2022-08-14T23:23:28;26.10;61.00
47546;DHT22;50104;52.002;4.688;2022-08-14T23:28:29;26.10;61.10
47546;DHT22;50104;52.002;4.688;2022-08-14T23:33:30;26.00;61.20
47546;DHT22;50104;52.002;4.688;2022-08-14T23:38:33;26.00;61.20
47546;DHT22;50104;52.002;4.688;2022-08-14T23:43:33;26.00;61.40
47546;DHT22;50104;52.002;4.688;2022-08-14T23:48:34;25.90;61.40
47546;DHT22;50104;52.002;4.688;2022-08-14T23:53:37;25.90;61.10
47546;DHT22;50104;52.002;4.688;2022-08-14T23:58:41;25.90;61.10
